createdAt,value
2022-10-28T00:01:17.865Z,100647.31
2022-10-28T00:03:54.059Z,100636.28
2022-10-28T00:06:28.729Z,100651.44
2022-10-28T00:08:56.722Z,100643.44
2022-10-28T00:11:34.958Z,100632.94
2022-10-28T00:14:04.442Z,100649.34
2022-10-28T00:16:34.004Z,100638.06
2022-10-28T00:19:03.879Z,100636.72
2022-10-28T00:21:34.575Z,100625.78
2022-10-28T00:24:05.836Z,100639.44
2022-10-28T00:26:38.224Z,100640.25
2022-10-28T00:29:11.297Z,100638.94
2022-10-28T00:31:39.502Z,100538.84
2022-10-28T00:34:09.633Z,100634.84
2022-10-28T00:36:39.506Z,100627.72
2022-10-28T00:39:13.087Z,100619.19
2022-10-28T00:41:42.940Z,100622.50
2022-10-28T00:44:40.954Z,100638.16
2022-10-28T00:47:17.072Z,100631.59
2022-10-28T00:49:46.347Z,100620.06
2022-10-28T00:52:18.911Z,100614.53
2022-10-28T00:54:46.849Z,100623.31
2022-10-28T00:57:18.871Z,100611.44
2022-10-28T00:59:50.038Z,100629.28
2022-10-28T01:02:17.646Z,100620.22
2022-10-28T01:04:45.055Z,100613.97
2022-10-28T01:07:12.215Z,100621.13
2022-10-28T01:09:40.430Z,100622.97
2022-10-28T01:12:07.395Z,100613.09
2022-10-28T01:15:03.642Z,100617.44
2022-10-28T01:17:54.722Z,100609.78
2022-10-28T01:20:27.959Z,100621.84
2022-10-28T01:23:25.310Z,100621.56
2022-10-28T01:26:26.115Z,100610.28
2022-10-28T01:29:11.929Z,100616.38
2022-10-28T01:31:55.231Z,100612.53
2022-10-28T01:34:28.353Z,100614.19
2022-10-28T01:37:08.762Z,100602.19
2022-10-28T01:39:42.782Z,100599.44
2022-10-28T01:42:17.323Z,100627.88
2022-10-28T01:45:04.683Z,100603.53
2022-10-28T01:48:10.088Z,100618.28
2022-10-28T01:51:01.312Z,100610.06
2022-10-28T01:53:33.987Z,100600.19
2022-10-28T01:56:05.635Z,100604.56
2022-10-28T01:58:33.983Z,100614.19
2022-10-28T02:01:05.086Z,100603.78
2022-10-28T02:03:32.225Z,100607.91
2022-10-28T02:06:03.699Z,100609.22
2022-10-28T02:08:39.834Z,100623.31
2022-10-28T02:11:21.780Z,100605.44
2022-10-28T02:14:19.322Z,100616.94
2022-10-28T02:17:22.632Z,100615.22
2022-10-28T02:20:21.412Z,100608.31
2022-10-28T02:22:58.907Z,100611.94
2022-10-28T02:25:34.228Z,100603.66
2022-10-28T02:28:12.461Z,100610.84
2022-10-28T02:30:52.273Z,100613.00
2022-10-28T02:33:23.809Z,100617.41
2022-10-28T02:35:57.646Z,100632.84
2022-10-28T02:38:35.052Z,100629.47
2022-10-28T02:41:10.760Z,100614.88
2022-10-28T02:43:40.464Z,100610.38
2022-10-28T02:46:09.683Z,100607.88
2022-10-28T02:48:51.632Z,100595.16
2022-10-28T02:51:34.698Z,100614.97
2022-10-28T02:54:13.428Z,100621.34
2022-10-28T02:57:30.102Z,100622.41
2022-10-28T03:00:00.704Z,100611.34
2022-10-28T03:02:28.897Z,100622.03
2022-10-28T03:04:55.718Z,100617.66
2022-10-28T03:07:23.008Z,100615.69
2022-10-28T03:09:50.200Z,100615.91
2022-10-28T03:12:17.369Z,100611.53
2022-10-28T03:14:44.411Z,100590.16
2022-10-28T03:17:11.165Z,100597.75
2022-10-28T03:19:38.180Z,100615.91
2022-10-28T03:22:05.349Z,100617.56
2022-10-28T03:24:32.528Z,100611.56
2022-10-28T03:27:00.004Z,100619.31
2022-10-28T03:29:27.127Z,100614.41
2022-10-28T03:31:53.898Z,100618.78
2022-10-28T03:34:20.923Z,100619.13
2022-10-28T03:36:48.077Z,100624.97
2022-10-28T03:39:15.478Z,100627.44
2022-10-28T03:41:42.228Z,100615.88
2022-10-28T03:44:09.363Z,100621.34
2022-10-28T03:46:36.410Z,100623.84
2022-10-28T03:49:04.047Z,100623.22
2022-10-28T03:51:31.261Z,100625.66
2022-10-28T03:53:58.397Z,100628.69
2022-10-28T03:56:25.350Z,100628.38
2022-10-28T04:01:19.364Z,100623.34
2022-10-28T04:03:46.987Z,100626.84
2022-10-28T04:06:14.579Z,100606.56
2022-10-28T04:08:41.609Z,100622.00
2022-10-28T04:11:08.667Z,100612.56
2022-10-28T04:13:36.250Z,100618.03
2022-10-28T04:16:03.363Z,100605.38
2022-10-28T04:18:30.598Z,100603.66
2022-10-28T04:20:57.754Z,100601.69
2022-10-28T04:23:25.040Z,100619.81
2022-10-28T04:25:54.083Z,100626.94
2022-10-28T04:28:24.216Z,100620.88
2022-10-28T04:30:51.600Z,100616.28
2022-10-28T04:33:18.810Z,100622.56
2022-10-28T04:35:45.835Z,100620.91
2022-10-28T04:38:14.140Z,100623.97
2022-10-28T04:40:41.728Z,100626.09
2022-10-28T04:43:12.019Z,100621.53
2022-10-28T04:45:41.572Z,100627.34
2022-10-28T04:48:10.610Z,100629.44
2022-10-28T04:50:37.869Z,100623.97
2022-10-28T04:53:14.237Z,100629.94
2022-10-28T04:55:41.996Z,100637.88
2022-10-28T04:58:12.726Z,100626.13
2022-10-28T05:00:40.037Z,100637.19
2022-10-28T05:03:07.187Z,100638.59
2022-10-28T05:05:34.570Z,100647.72
2022-10-28T05:08:02.560Z,100640.84
2022-10-28T05:10:30.641Z,100650.19
2022-10-28T05:12:57.557Z,100641.94
2022-10-28T05:15:26.703Z,100651.22
2022-10-28T05:17:53.976Z,100650.66
2022-10-28T05:20:21.313Z,100632.75
2022-10-28T05:22:50.874Z,100647.81
2022-10-28T05:25:18.416Z,100650.66
2022-10-28T05:27:45.486Z,100654.22
2022-10-28T05:30:13.466Z,100665.00
2022-10-28T05:32:40.440Z,100658.66
2022-10-28T05:35:08.630Z,100671.03
2022-10-28T05:37:35.671Z,100677.13
2022-10-28T05:40:04.838Z,100681.63
2022-10-28T05:42:31.970Z,100675.66
2022-10-28T05:44:59.080Z,100673.53
2022-10-28T05:47:26.163Z,100663.72
2022-10-28T05:49:53.278Z,100666.59
2022-10-28T05:52:20.361Z,100663.66
2022-10-28T05:54:47.617Z,100667.38
2022-10-28T05:57:17.149Z,100675.19
2022-10-28T05:59:44.765Z,100664.88
2022-10-28T06:02:15.242Z,100671.81
2022-10-28T06:04:42.737Z,100675.91
2022-10-28T06:07:10.164Z,100667.44
2022-10-28T06:09:37.414Z,100676.53
2022-10-28T06:12:05.339Z,100677.09
2022-10-28T06:14:33.060Z,100674.63
2022-10-28T06:17:00.241Z,100682.44
2022-10-28T06:19:27.295Z,100683.31
2022-10-28T06:21:58.372Z,100678.41
2022-10-28T06:24:25.511Z,100686.66
2022-10-28T06:26:52.829Z,100658.66
2022-10-28T06:29:19.832Z,100685.94
2022-10-28T06:31:46.929Z,100682.91
2022-10-28T06:34:14.039Z,100690.09
2022-10-28T06:36:41.195Z,100681.31
2022-10-28T06:39:08.317Z,100685.72
2022-10-28T06:41:35.567Z,100687.06
2022-10-28T06:44:02.573Z,100670.03
2022-10-28T06:46:30.120Z,100691.41
2022-10-28T06:48:59.446Z,100691.97
2022-10-28T06:51:27.067Z,100696.84
2022-10-28T06:53:54.446Z,100698.19
2022-10-28T06:56:24.797Z,100688.19
2022-10-28T06:58:55.157Z,100697.50
2022-10-28T07:01:29.997Z,100691.91
2022-10-28T07:03:57.135Z,100685.81
2022-10-28T07:06:24.174Z,100696.66
2022-10-28T07:08:51.915Z,100685.56
2022-10-28T07:11:19.321Z,100666.25
2022-10-28T07:13:48.965Z,100678.75
2022-10-28T07:16:16.537Z,100690.78
2022-10-28T07:18:44.963Z,100687.88
2022-10-28T07:21:12.731Z,100684.44
2022-10-28T07:23:39.944Z,100688.13
2022-10-28T07:26:07.772Z,100674.81
2022-10-28T07:28:34.713Z,100684.63
2022-10-28T07:31:02.843Z,100687.50
2022-10-28T07:33:31.409Z,100683.19
2022-10-28T07:35:58.632Z,100677.38
2022-10-28T07:38:26.773Z,100662.97
2022-10-28T07:40:54.059Z,100668.75
2022-10-28T07:43:21.532Z,100678.47
2022-10-28T07:45:50.529Z,100668.88
2022-10-28T07:48:17.506Z,100679.69
2022-10-28T07:50:45.243Z,100676.16
2022-10-28T07:53:12.747Z,100669.63
2022-10-28T07:55:39.835Z,100668.41
2022-10-28T07:58:07.466Z,100671.22
2022-10-28T08:00:34.814Z,100680.75
2022-10-28T08:03:03.296Z,100685.19
2022-10-28T08:05:33.898Z,100677.53
2022-10-28T08:08:01.211Z,100673.44
2022-10-28T08:10:28.192Z,100676.50
2022-10-28T08:12:58.322Z,100684.19
2022-10-28T08:15:25.847Z,100675.72
2022-10-28T08:17:57.013Z,100677.84
2022-10-28T08:20:24.378Z,100678.25
2022-10-28T08:22:51.490Z,100672.16
2022-10-28T08:25:18.857Z,100668.50
2022-10-28T08:27:54.696Z,100671.41
2022-10-28T08:30:22.161Z,100683.78
2022-10-28T08:32:49.322Z,100672.38
2022-10-28T08:35:19.310Z,100669.50
2022-10-28T08:37:51.918Z,100677.75
2022-10-28T08:40:32.977Z,100672.91
2022-10-28T08:43:30.359Z,100682.78
2022-10-28T08:46:20.398Z,100683.97
2022-10-28T08:48:47.888Z,100676.97
2022-10-28T08:51:18.599Z,100672.91
2022-10-28T08:53:57.480Z,100668.84
2022-10-28T08:56:57.547Z,100675.63
2022-10-28T08:59:41.483Z,100651.75
2022-10-28T09:02:16.249Z,100669.28
2022-10-28T09:04:49.259Z,100666.69
2022-10-28T09:07:22.925Z,100657.34
2022-10-28T09:09:52.224Z,100655.53
2022-10-28T09:12:34.346Z,100657.19
2022-10-28T09:15:30.630Z,100649.50
2022-10-28T09:18:33.487Z,100653.09
2022-10-28T09:21:05.479Z,100650.16
2022-10-28T09:23:56.793Z,100658.50
2022-10-28T09:26:44.209Z,100655.38
2022-10-28T09:29:39.297Z,100650.47
2022-10-28T09:32:22.364Z,100641.13
2022-10-28T09:34:56.646Z,100643.22
2022-10-28T09:37:43.542Z,100633.69
2022-10-28T09:40:20.012Z,100640.34
2022-10-28T09:43:17.174Z,100635.13
2022-10-28T09:45:48.337Z,100637.03
2022-10-28T09:48:29.813Z,100632.63
2022-10-28T09:50:58.838Z,100626.84
2022-10-28T09:53:48.969Z,100629.41
2022-10-28T09:56:16.594Z,100617.63
2022-10-28T09:58:47.897Z,100612.69
2022-10-28T10:01:17.226Z,100616.94
2022-10-28T10:03:47.985Z,100612.00
2022-10-28T10:06:43.073Z,100613.16
2022-10-28T10:09:32.142Z,100607.72
2022-10-28T10:12:10.487Z,100606.50
2022-10-28T10:14:44.445Z,100611.56
2022-10-28T10:17:18.646Z,100599.34
2022-10-28T10:20:00.914Z,100603.81
2022-10-28T10:22:37.906Z,100605.75
2022-10-28T10:25:25.249Z,100610.84
2022-10-28T10:28:05.519Z,100593.16
2022-10-28T10:30:39.315Z,100587.66
2022-10-28T10:33:16.823Z,100593.03
2022-10-28T10:35:45.191Z,100592.00
2022-10-28T10:38:15.771Z,100583.31
2022-10-28T10:40:51.865Z,100579.97
2022-10-28T10:43:19.022Z,100580.09
2022-10-28T10:46:16.928Z,100580.56
2022-10-28T10:48:45.037Z,100575.13
2022-10-28T10:51:21.366Z,100576.56
2022-10-28T10:53:50.888Z,100569.25
2022-10-28T10:56:33.117Z,100567.75
2022-10-28T10:59:03.932Z,100562.41
2022-10-28T11:01:40.144Z,100567.63
2022-10-28T11:04:18.914Z,100566.94
2022-10-28T11:06:52.297Z,100568.38
2022-10-28T11:09:37.181Z,100569.88
2022-10-28T11:12:26.623Z,100573.22
2022-10-28T11:15:02.649Z,100576.03
2022-10-28T11:17:34.797Z,100566.75
2022-10-28T11:20:33.102Z,100563.75
2022-10-28T11:23:29.165Z,100560.59
2022-10-28T11:26:04.015Z,100561.00
2022-10-28T11:28:33.379Z,100565.09
2022-10-28T11:31:16.239Z,100555.69
2022-10-28T11:34:13.554Z,100557.47
2022-10-28T11:37:09.773Z,100558.75
2022-10-28T11:40:06.690Z,100548.16
2022-10-28T11:42:49.765Z,100555.22
2022-10-28T11:45:48.582Z,100543.72
2022-10-28T11:48:40.211Z,100548.97
2022-10-28T11:51:24.297Z,100544.44
2022-10-28T11:53:57.486Z,100545.81
2022-10-28T11:56:33.546Z,100539.88
2022-10-28T11:59:24.162Z,100531.00
2022-10-28T12:02:11.841Z,100531.25
2022-10-28T12:04:51.215Z,100528.56
2022-10-28T12:07:37.151Z,100531.47
2022-10-28T12:10:14.674Z,100533.00
2022-10-28T12:13:15.559Z,100522.63
2022-10-28T12:16:11.847Z,100526.16
2022-10-28T12:19:03.221Z,100513.09
2022-10-28T12:21:41.908Z,100521.38
2022-10-28T12:24:19.983Z,100506.47
2022-10-28T12:26:52.211Z,100508.22
2022-10-28T12:29:30.180Z,100498.06
2022-10-28T12:31:57.293Z,100504.69
2022-10-28T12:34:42.150Z,100496.78
2022-10-28T12:37:14.715Z,100497.56
2022-10-28T12:39:59.736Z,100494.22
2022-10-28T12:42:36.876Z,100498.28
2022-10-28T12:45:07.145Z,100489.31
2022-10-28T12:48:06.095Z,100495.25
2022-10-28T12:50:59.100Z,100440.31
2022-10-28T12:53:55.479Z,100500.72
2022-10-28T12:56:28.745Z,100493.25
2022-10-28T12:59:20.632Z,100490.19
2022-10-28T13:01:50.357Z,100487.28
2022-10-28T13:04:18.845Z,100485.31
2022-10-28T13:07:32.300Z,100487.41
2022-10-28T13:10:07.139Z,100484.09
2022-10-28T13:12:55.760Z,100496.81
2022-10-28T13:16:04.632Z,100491.84
2022-10-28T13:18:43.800Z,100489.56
2022-10-28T13:21:29.629Z,100488.16
2022-10-28T13:24:17.949Z,100483.38
2022-10-28T13:26:46.905Z,100479.91
2022-10-28T13:29:21.157Z,100485.47
2022-10-28T13:31:49.257Z,100474.25
2022-10-28T13:34:19.390Z,100478.19
2022-10-28T13:36:57.556Z,100475.97
2022-10-28T13:39:33.855Z,100490.53
2022-10-28T13:42:12.997Z,100491.69
2022-10-28T13:44:55.936Z,100479.94
2022-10-28T13:47:31.128Z,100484.94
2022-10-28T13:50:11.079Z,100480.28
2022-10-28T13:52:43.376Z,100490.53
2022-10-28T13:55:21.529Z,100486.34
2022-10-28T13:58:10.982Z,100485.06
2022-10-28T14:00:41.172Z,100479.69
2022-10-28T14:03:22.215Z,100477.00
2022-10-28T14:05:53.966Z,100474.06
2022-10-28T14:08:29.963Z,100472.78
2022-10-28T14:11:10.112Z,100477.19
2022-10-28T14:14:00.191Z,100465.78
2022-10-28T14:16:33.529Z,100479.75
2022-10-28T14:19:10.045Z,100478.00
2022-10-28T14:21:40.758Z,100479.38
2022-10-28T14:24:14.675Z,100467.16
2022-10-28T14:27:10.047Z,100478.13
2022-10-28T14:29:53.080Z,100467.66
2022-10-28T14:32:32.916Z,100474.81
2022-10-28T14:35:11.304Z,100471.56
2022-10-28T14:38:04.369Z,100470.06
2022-10-28T14:41:02.215Z,100469.13
2022-10-28T14:43:43.020Z,100475.47
2022-10-28T14:46:13.553Z,100476.63
2022-10-28T14:48:54.018Z,100475.56
2022-10-28T14:51:42.623Z,100468.41
2022-10-28T14:54:16.008Z,100469.53
2022-10-28T14:56:44.351Z,100431.47
2022-10-28T14:59:33.675Z,100469.38
2022-10-28T15:02:24.701Z,100478.50
2022-10-28T15:05:20.904Z,100477.09
2022-10-28T15:07:48.939Z,100469.47
2022-10-28T15:10:34.153Z,100469.88
2022-10-28T15:13:01.310Z,100479.75
2022-10-28T15:15:31.427Z,100472.97
2022-10-28T15:18:01.312Z,100481.31
2022-10-28T15:20:30.582Z,100484.94
2022-10-28T15:23:18.582Z,100481.06
2022-10-28T15:25:46.188Z,100475.38
2022-10-28T15:28:14.322Z,100471.97
2022-10-28T15:30:46.444Z,100476.41
2022-10-28T15:33:32.167Z,100481.38
2022-10-28T15:36:24.311Z,100474.00
2022-10-28T15:39:03.349Z,100472.72
2022-10-28T15:41:30.303Z,100475.16
2022-10-28T15:44:02.691Z,100469.25
2022-10-28T15:46:32.165Z,100482.00
2022-10-28T15:49:02.726Z,100480.53
2022-10-28T15:51:30.041Z,100477.75
2022-10-28T15:54:18.835Z,100469.56
2022-10-28T15:57:04.239Z,100478.09
2022-10-28T15:59:31.317Z,100479.22
2022-10-28T16:01:59.683Z,100475.78
2022-10-28T16:04:26.757Z,100485.72
2022-10-28T16:06:57.584Z,100479.00
2022-10-28T16:09:35.262Z,100484.88
2022-10-28T16:12:17.906Z,100476.81
2022-10-28T16:14:54.043Z,100487.22
2022-10-28T16:17:30.497Z,100488.63
2022-10-28T16:20:17.298Z,100492.00
2022-10-28T16:22:47.302Z,100480.06
2022-10-28T16:25:20.782Z,100495.88
2022-10-28T16:27:51.364Z,100492.72
2022-10-28T16:30:18.834Z,100495.28
2022-10-28T16:32:50.202Z,100486.06
2022-10-28T16:35:22.089Z,100494.06
2022-10-28T16:37:54.780Z,100501.69
2022-10-28T16:43:21.741Z,100483.97
2022-10-28T16:45:50.165Z,100492.22
2022-10-28T16:48:19.133Z,100493.38
2022-10-28T16:50:52.010Z,100483.88
2022-10-28T16:53:19.942Z,100491.56
2022-10-28T16:55:47.193Z,100497.03
2022-10-28T16:58:15.716Z,100493.81
2022-10-28T17:00:43.840Z,100504.50
2022-10-28T17:03:14.965Z,100501.34
2022-10-28T17:05:42.882Z,100502.25
2022-10-28T17:08:11.726Z,100497.50
2022-10-28T17:10:42.784Z,100506.09
2022-10-28T17:13:14.304Z,100502.84
2022-10-28T17:15:43.164Z,100501.91
2022-10-28T17:18:12.209Z,100493.81
2022-10-28T17:20:39.595Z,100503.03
2022-10-28T17:23:06.962Z,100495.13
2022-10-28T17:25:34.178Z,100502.50
2022-10-28T17:28:01.725Z,100495.44
2022-10-28T17:30:28.968Z,100500.34
2022-10-28T17:32:55.964Z,100496.66
2022-10-28T17:35:23.550Z,100503.63
2022-10-28T17:37:50.437Z,100509.25
2022-10-28T17:40:17.925Z,100505.47
2022-10-28T17:42:45.506Z,100505.34
2022-10-28T17:45:14.443Z,100508.97
2022-10-28T17:47:43.612Z,100501.38
2022-10-28T17:50:10.759Z,100499.31
2022-10-28T17:52:38.678Z,100506.34
2022-10-28T17:55:06.271Z,100489.50
2022-10-28T17:57:33.189Z,100493.16
2022-10-28T18:00:00.263Z,100501.31
2022-10-28T18:02:27.401Z,100496.78
2022-10-28T18:04:54.551Z,100498.78
2022-10-28T18:07:21.666Z,100489.75
2022-10-28T18:09:48.849Z,100490.97
2022-10-28T18:12:15.823Z,100496.25
2022-10-28T18:14:42.996Z,100480.94
2022-10-28T18:17:14.360Z,100493.69
2022-10-28T18:19:42.135Z,100488.69
2022-10-28T18:22:09.263Z,100487.03
2022-10-28T18:24:36.180Z,100479.94
2022-10-28T18:27:03.182Z,100483.31
2022-10-28T18:29:30.181Z,100488.22
2022-10-28T18:31:57.635Z,100489.44
2022-10-28T18:34:27.756Z,100497.19
2022-10-28T18:36:54.876Z,100502.47
2022-10-28T18:39:22.516Z,100499.50
2022-10-28T18:41:53.270Z,100501.78
2022-10-28T18:44:29.821Z,100490.88
2022-10-28T18:46:57.192Z,100496.13
2022-10-28T18:49:24.760Z,100505.56
2022-10-28T18:51:53.900Z,100496.81
2022-10-28T18:54:22.670Z,100503.25
2022-10-28T18:56:53.568Z,100485.97
2022-10-28T18:59:24.836Z,100502.72
2022-10-28T19:01:52.304Z,100500.84
2022-10-28T19:04:19.335Z,100492.13
2022-10-28T19:06:47.685Z,100485.03
2022-10-28T19:09:14.838Z,100498.56
2022-10-28T19:11:41.852Z,100475.34
2022-10-28T19:14:10.012Z,100493.13
2022-10-28T19:16:37.266Z,100506.38
2022-10-28T19:19:05.320Z,100504.72
2022-10-28T19:21:33.209Z,100505.84
2022-10-28T19:24:00.986Z,100497.59
2022-10-28T19:26:30.452Z,100499.28
2022-10-28T19:28:57.671Z,100506.44
2022-10-28T19:31:27.048Z,100511.69
2022-10-28T19:33:56.372Z,100503.78
2022-10-28T19:36:38.941Z,100514.22
2022-10-28T19:39:05.729Z,100512.59
2022-10-28T19:41:32.783Z,100513.72
2022-10-28T19:44:07.608Z,100507.66
2022-10-28T19:46:36.030Z,100508.56
2022-10-28T19:49:06.874Z,100514.84
2022-10-28T19:51:39.076Z,100515.16
2022-10-28T19:54:10.206Z,100520.41
2022-10-28T19:56:39.076Z,100500.72
2022-10-28T19:59:07.153Z,100513.84
2022-10-28T20:01:46.862Z,100507.50
2022-10-28T20:04:14.153Z,100515.28
2022-10-28T20:06:41.426Z,100520.50
2022-10-28T20:09:08.935Z,100514.47
2022-10-28T20:11:39.183Z,100514.22
2022-10-28T20:14:12.988Z,100524.41
2022-10-28T20:17:06.709Z,100531.00
2022-10-28T20:19:38.235Z,100528.84
2022-10-28T20:22:05.585Z,100535.44
2022-10-28T20:24:39.888Z,100521.22
2022-10-28T20:27:20.178Z,100530.56
2022-10-28T20:29:47.175Z,100526.16
2022-10-28T20:32:15.215Z,100535.25
2022-10-28T20:34:43.470Z,100530.03
2022-10-28T20:37:10.477Z,100526.75
2022-10-28T20:39:38.660Z,100531.69
2022-10-28T20:42:05.661Z,100509.72
2022-10-28T20:44:37.753Z,100525.94
2022-10-28T20:47:04.787Z,100519.34
2022-10-28T20:49:32.993Z,100527.28
2022-10-28T20:52:00.969Z,100524.81
2022-10-28T20:54:27.981Z,100528.38
2022-10-28T20:56:54.996Z,100522.34
2022-10-28T20:59:22.078Z,100527.84
2022-10-28T21:01:50.726Z,100525.66
2022-10-28T21:04:17.900Z,100522.69
2022-10-28T21:06:44.993Z,100508.69
2022-10-28T21:09:12.355Z,100517.22
2022-10-28T21:11:39.305Z,100515.63
2022-10-28T21:14:06.404Z,100518.66
2022-10-28T21:16:33.521Z,100517.56
2022-10-28T21:19:00.905Z,100519.50
2022-10-28T21:21:28.313Z,100523.66
2022-10-28T21:23:55.384Z,100519.28
2022-10-28T21:26:22.497Z,100514.63
2022-10-28T21:28:51.897Z,100522.56
2022-10-28T21:31:21.539Z,100497.09
2022-10-28T21:36:19.061Z,100526.69
2022-10-28T21:38:46.565Z,100519.31
2022-10-28T21:41:17.341Z,100523.16
2022-10-28T21:43:48.050Z,100524.25
2022-10-28T21:46:16.349Z,100523.97
2022-10-28T21:48:43.518Z,100511.63
2022-10-28T21:51:14.773Z,100506.13
2022-10-28T21:53:43.774Z,100489.13
2022-10-28T21:56:18.144Z,100508.88
2022-10-28T21:58:47.885Z,100501.75
2022-10-28T22:01:21.945Z,100516.56
2022-10-28T22:03:50.298Z,100507.22
2022-10-28T22:06:17.574Z,100475.66
2022-10-28T22:08:45.003Z,100502.28
2022-10-28T22:11:17.617Z,100504.19
2022-10-28T22:13:44.848Z,100489.34
2022-10-28T22:16:16.721Z,100499.25
2022-10-28T22:18:44.947Z,100500.63
2022-10-28T22:21:20.608Z,100506.38
2022-10-28T22:23:48.147Z,100491.00
2022-10-28T22:26:19.314Z,100501.66
2022-10-28T22:28:46.835Z,100499.44
2022-10-28T22:31:19.718Z,100449.19
2022-10-28T22:36:21.415Z,100478.56
2022-10-28T22:38:49.123Z,100496.94
2022-10-28T22:41:20.442Z,100491.72
2022-10-28T22:43:51.879Z,100496.34
2022-10-28T22:46:19.450Z,100499.09
2022-10-28T22:48:47.022Z,100506.53
2022-10-28T22:51:15.595Z,100497.53
2022-10-28T22:53:43.170Z,100499.66
2022-10-28T22:56:15.837Z,100482.38
2022-10-28T22:58:42.842Z,100498.28
2022-10-28T23:01:19.027Z,100498.81
2022-10-28T23:03:47.662Z,100495.56
2022-10-28T23:06:16.828Z,100484.28
2022-10-28T23:08:45.187Z,100495.56
2022-10-28T23:11:13.141Z,100486.22
2022-10-28T23:13:40.463Z,100490.59
2022-10-28T23:16:16.086Z,100495.81
2022-10-28T23:18:44.027Z,100491.97
2022-10-28T23:21:13.624Z,100482.63
2022-10-28T23:23:42.201Z,100485.13
2022-10-28T23:26:10.779Z,100481.56
2022-10-28T23:28:37.797Z,100478.00
2022-10-28T23:31:06.907Z,100479.09
2022-10-28T23:33:35.139Z,100475.81
2022-10-28T23:36:06.458Z,100470.88
2022-10-28T23:38:33.323Z,100481.28
2022-10-28T23:41:03.201Z,100474.16
2022-10-28T23:43:31.709Z,100483.22
2022-10-28T23:45:59.291Z,100480.19
2022-10-28T23:48:28.336Z,100475.25
2022-10-28T23:50:55.996Z,100466.50
2022-10-28T23:53:24.356Z,100475.81
2022-10-28T23:55:52.594Z,100469.53
2022-10-28T23:58:20.895Z,100469.50
